Time;durP1;ratioP1;P1;durP2;ratioP2;P2;SDS_P1;SDS_P2;PMS_P1;PMS_P2;Temp;Humidity;BMP_temperature;BMP_pressure;BME280_temperature;BME280_humidity;BME280_pressure;Samples;Min_cycle;Max_cycle;Signal;HPM_P1;HPM_P2
2022/05/15 00:04:41;;;;;;;12.30;4.70;;;;;;;;;;4708909;30;20519;-96
2022/05/15 00:38:21;;;;;;;21.27;4.77;;;;;;;;;;4856016;29;20835;-96
2022/05/15 00:58:25;;;;;;;17.40;4.53;;;;;;;;;;4864413;29;20914;-96
2022/05/15 01:04:20;;;;;;;19.13;4.63;;;;;;;;;;4853445;29;20513;-96
2022/05/15 01:26:45;;;;;;;16.70;4.27;;;;;;;;;;4860175;29;20996;-95
2022/05/15 01:36:26;;;;;;;23.17;3.73;;;;;;;;;;4864918;29;20523;-95
2022/05/15 01:52:43;;;;;;;21.13;4.10;;;;;;;;;;4852800;29;20510;-96
2022/05/15 01:55:11;;;;;;;25.30;5.30;;;;;;;;;;4816194;29;20521;-96
2022/05/15 02:07:33;;;;;;;16.90;4.53;;;;;;;;;;4852872;29;20568;-95
2022/05/15 02:10:15;;;;;;;13.87;3.80;;;;;;;;;;4854541;29;20483;-95
2022/05/15 02:19:11;;;;;;;13.73;4.00;;;;;;;;;;4870871;29;20471;-96
2022/05/15 02:21:53;;;;;;;18.00;4.50;;;;;;;;;;4872320;29;20474;-96
2022/05/15 02:24:25;;;;;;;15.00;4.43;;;;;;;;;;4837117;29;20571;-96
2022/05/15 02:27:12;;;;;;;21.10;4.20;;;;;;;;;;4887116;29;20459;-96
2022/05/15 02:29:43;;;;;;;12.93;4.00;;;;;;;;;;4889092;29;20877;-96
2022/05/15 02:32:37;;;;;;;20.37;4.70;;;;;;;;;;4875497;29;20451;-96
2022/05/15 02:38:33;;;;;;;24.57;4.70;;;;;;;;;;4884051;29;20458;-96
2022/05/15 02:47:27;;;;;;;20.73;4.00;;;;;;;;;;4867417;29;20427;-96
2022/05/15 02:53:15;;;;;;;15.70;3.87;;;;;;;;;;4861036;29;20451;-96
2022/05/15 02:55:51;;;;;;;12.70;3.67;;;;;;;;;;4876106;29;20451;-96
2022/05/15 02:58:37;;;;;;;16.83;4.03;;;;;;;;;;4881527;29;20498;-96
2022/05/15 03:01:05;;;;;;;15.80;4.90;;;;;;;;;;4864171;29;20448;-96
2022/05/15 03:04:02;;;;;;;18.37;4.17;;;;;;;;;;4837813;29;20542;-96
2022/05/15 03:06:42;;;;;;;14.07;3.70;;;;;;;;;;4849037;29;20466;-96
2022/05/15 03:09:12;;;;;;;16.90;4.40;;;;;;;;;;4838315;29;20463;-96
2022/05/15 03:11:46;;;;;;;13.10;4.20;;;;;;;;;;4849590;29;20447;-96
2022/05/15 03:14:15;;;;;;;16.30;4.60;;;;;;;;;;4834656;29;20519;-96
2022/05/15 03:17:05;;;;;;;12.47;4.10;;;;;;;;;;4834921;29;20520;-96
2022/05/15 03:19:54;;;;;;;;;;;;;;;;;;;;;
2022/05/15 03:22:40;;;;;;;15.90;4.40;;;;;;;;;;4873839;29;20442;-96
2022/05/15 03:25:31;;;;;;;19.10;5.20;;;;;;;;;;4863620;29;20458;-96
2022/05/15 03:28:19;;;;;;;18.90;5.37;;;;;;;;;;4877898;29;20507;-96
2022/05/15 03:31:13;;;;;;;23.20;4.37;;;;;;;;;;4874436;29;20450;-96
2022/05/15 03:33:48;;;;;;;20.97;4.60;;;;;;;;;;4864552;29;20474;-96
2022/05/15 03:36:22;;;;;;;17.60;3.97;;;;;;;;;;4866629;29;20450;-96
2022/05/15 03:42:12;;;;;;;16.10;3.97;;;;;;;;;;4880672;29;20422;-96
2022/05/15 03:44:42;;;;;;;14.17;4.30;;;;;;;;;;4864352;29;20443;-96
2022/05/15 03:47:40;;;;;;;12.60;4.20;;;;;;;;;;4853486;29;20575;-96
2022/05/15 03:50:18;;;;;;;13.70;4.17;;;;;;;;;;4863123;29;20475;-96
2022/05/15 03:52:53;;;;;;;16.93;4.37;;;;;;;;;;4879397;29;20474;-96
2022/05/15 03:55:26;;;;;;;16.27;4.03;;;;;;;;;;4867068;29;20891;-96
2022/05/15 03:58:09;;;;;;;15.97;4.43;;;;;;;;;;4849919;29;20447;-96
2022/05/15 04:01:00;;;;;;;13.90;4.90;;;;;;;;;;4837463;29;20452;-96
2022/05/15 04:03:47;;;;;;;15.20;4.00;;;;;;;;;;4846891;29;20443;-96
2022/05/15 04:06:38;;;;;;;17.13;4.27;;;;;;;;;;4856581;29;20456;-95
2022/05/15 04:09:40;;;;;;;14.30;4.03;;;;;;;;;;4930886;24;20494;-96
2022/05/15 04:12:24;;;;;;;29.90;5.20;;;;;;;;;;4868982;29;20460;-96
2022/05/15 04:15:08;;;;;;;15.00;4.67;;;;;;;;;;4874967;29;20519;-96
2022/05/15 04:27:43;;;;;;;17.43;5.03;;;;;;;;;;4881391;29;21023;-96
2022/05/15 04:30:20;;;;;;;11.00;3.60;;;;;;;;;;4892331;29;20458;-96
2022/05/15 04:36:45;;;;;;;16.93;4.10;;;;;;;;;;4899600;29;20444;-96
2022/05/15 04:42:51;;;;;;;19.30;4.47;;;;;;;;;;4887162;29;20473;-96
2022/05/15 04:55:29;;;;;;;17.77;4.60;;;;;;;;;;4893638;29;20954;-96
2022/05/15 05:01:19;;;;;;;14.33;4.20;;;;;;;;;;4891451;29;20523;-96
2022/05/15 05:14:38;;;;;;;17.10;3.80;;;;;;;;;;4905329;29;20516;-96
2022/05/15 05:34:22;;;;;;;16.60;4.33;;;;;;;;;;4895589;29;20490;-95
2022/05/15 05:49:57;;;;;;;16.13;4.53;;;;;;;;;;4941037;24;20433;-96
2022/05/15 05:55:12;;;;;;;11.40;4.20;;;;;;;;;;5707878;24;20517;-96
2022/05/15 06:01:27;;;;;;;21.63;5.40;;;;;;;;;;4907105;29;20477;-96
2022/05/15 06:20:37;;;;;;;16.20;4.93;;;;;;;;;;5025890;23;20858;-96
2022/05/15 06:37:10;;;;;;;16.23;5.13;;;;;;;;;;4900120;29;20473;-96
2022/05/15 07:13:01;;;;;;;25.33;4.53;;;;;;;;;;4884158;29;20440;-96
2022/05/15 07:26:24;;;;;;;16.70;4.37;;;;;;;;;;4863374;29;20927;-96
2022/05/15 07:35:46;;;;;;;22.47;3.70;;;;;;;;;;4878777;29;20538;-96
2022/05/15 07:45:04;;;;;;;19.90;4.47;;;;;;;;;;4850948;29;20407;-94
2022/05/15 07:51:00;;;;;;;16.83;3.80;;;;;;;;;;4863884;29;20414;-94
2022/05/15 07:56:58;;;;;;;12.67;3.30;;;;;;;;;;4863891;29;21035;-95
2022/05/15 07:59:42;;;;;;;13.83;3.40;;;;;;;;;;4832143;29;20444;-90
2022/05/15 08:02:12;;;;;;;14.77;4.10;;;;;;;;;;4833333;29;20482;-90
2022/05/15 08:10:18;;;;;;;12.03;3.37;;;;;;;;;;4846203;29;20440;-91
2022/05/15 08:12:46;;;;;;;15.60;3.40;;;;;;;;;;4844212;29;20447;-90
2022/05/15 08:15:14;;;;;;;26.23;3.90;;;;;;;;;;4842151;29;20499;-90
2022/05/15 08:17:45;;;;;;;24.47;4.10;;;;;;;;;;4827810;29;20484;-90
2022/05/15 08:25:50;;;;;;;14.00;3.20;;;;;;;;;;4847657;29;20483;-91
2022/05/15 08:28:18;;;;;;;14.03;3.57;;;;;;;;;;4860729;29;20566;-92
2022/05/15 08:30:45;;;;;;;21.60;3.90;;;;;;;;;;4845186;29;20447;-91
2022/05/15 08:33:13;;;;;;;18.37;4.37;;;;;;;;;;4844778;29;21017;-91
2022/05/15 08:35:41;;;;;;;16.13;3.33;;;;;;;;;;4824125;29;20493;-91
2022/05/15 08:38:09;;;;;;;18.47;3.23;;;;;;;;;;4843575;29;20510;-91
2022/05/15 08:40:44;;;;;;;16.23;3.00;;;;;;;;;;4828671;29;20542;-91
2022/05/15 08:43:20;;;;;;;18.50;3.23;;;;;;;;;;4845302;29;20459;-91
2022/05/15 08:45:51;;;;;;;12.13;3.27;;;;;;;;;;4844161;29;20458;-90
2022/05/15 08:48:20;;;;;;;22.20;4.87;;;;;;;;;;4858682;29;20451;-90
2022/05/15 08:50:53;;;;;;;16.23;2.80;;;;;;;;;;4845025;29;20451;-91
2022/05/15 08:53:25;;;;;;;14.03;2.80;;;;;;;;;;4843890;29;20456;-91
2022/05/15 08:55:57;;;;;;;11.93;2.90;;;;;;;;;;4827952;29;20487;-93
2022/05/15 08:58:25;;;;;;;21.33;3.30;;;;;;;;;;4865672;29;21080;-93
2022/05/15 09:01:24;;;;;;;8.53;2.40;;;;;;;;;;4862144;29;20443;-93
2022/05/15 09:03:58;;;;;;;15.00;2.97;;;;;;;;;;4862933;29;20490;-93
2022/05/15 09:06:37;;;;;;;12.00;2.43;;;;;;;;;;4862492;29;20494;-91
2022/05/15 09:09:17;;;;;;;15.07;3.10;;;;;;;;;;4863392;29;20508;-91
2022/05/15 09:11:52;;;;;;;13.57;2.97;;;;;;;;;;4869207;29;20797;-91
2022/05/15 09:14:40;;;;;;;7.07;2.40;;;;;;;;;;4862034;29;20442;-90
2022/05/15 09:17:14;;;;;;;8.93;2.33;;;;;;;;;;4878101;29;20451;-88
2022/05/15 09:19:45;;;;;;;10.50;2.50;;;;;;;;;;4846763;29;20458;-88
2022/05/15 09:22:13;;;;;;;14.60;2.43;;;;;;;;;;4861260;29;20454;-89
2022/05/15 09:24:53;;;;;;;11.33;2.87;;;;;;;;;;4832688;29;20452;-89
2022/05/15 09:27:23;;;;;;;9.00;2.10;;;;;;;;;;4830265;29;20452;-89
2022/05/15 09:29:54;;;;;;;9.50;2.90;;;;;;;;;;4832422;29;20828;-90
2022/05/15 09:32:38;;;;;;;12.07;2.00;;;;;;;;;;4859484;29;20576;-88
2022/05/15 09:35:29;;;;;;;12.37;2.33;;;;;;;;;;4864822;29;20494;-92
2022/05/15 09:43:50;;;;;;;8.77;2.27;;;;;;;;;;4883274;29;20479;-95
2022/05/15 09:46:52;;;;;;;20.67;2.03;;;;;;;;;;4855143;29;20469;-91
2022/05/15 09:49:28;;;;;;;13.33;2.40;;;;;;;;;;4882787;29;20953;-92
2022/05/15 09:52:04;;;;;;;12.00;2.60;;;;;;;;;;4866091;29;20971;-92
2022/05/15 09:54:43;;;;;;;9.63;2.30;;;;;;;;;;4872739;29;20447;-93
2022/05/15 09:57:24;;;;;;;13.50;3.30;;;;;;;;;;4879334;29;20537;-93
2022/05/15 10:00:09;;;;;;;19.47;2.90;;;;;;;;;;4851133;29;20458;-91
2022/05/15 10:06:22;;;;;;;10.77;2.27;;;;;;;;;;4882934;29;21019;-94
2022/05/15 10:12:29;;;;;;;12.53;2.60;;;;;;;;;;4882584;29;20486;-94
2022/05/15 10:15:10;;;;;;;10.77;2.63;;;;;;;;;;4850737;29;20478;-92
2022/05/15 10:17:57;;;;;;;10.17;2.13;;;;;;;;;;4850851;29;20466;-94
2022/05/15 10:20:30;;;;;;;11.60;2.50;;;;;;;;;;4866207;29;20458;-95
2022/05/15 10:23:21;;;;;;;11.40;2.27;;;;;;;;;;4850564;29;20451;-94
2022/05/15 10:25:55;;;;;;;7.47;2.03;;;;;;;;;;4866402;29;20510;-94
2022/05/15 10:31:19;;;;;;;11.17;2.93;;;;;;;;;;4882032;29;20796;-94
2022/05/15 10:33:51;;;;;;;9.73;2.20;;;;;;;;;;4881450;29;20447;-93
2022/05/15 10:36:26;;;;;;;11.33;2.17;;;;;;;;;;4865865;29;21069;-94
2022/05/15 10:41:50;;;;;;;7.57;2.17;;;;;;;;;;4881643;29;21021;-94
2022/05/15 10:44:24;;;;;;;10.77;1.93;;;;;;;;;;4880725;29;20491;-92
2022/05/15 10:46:57;;;;;;;8.60;1.90;;;;;;;;;;4865803;29;20470;-94
2022/05/15 10:59:47;;;;;;;8.20;2.30;;;;;;;;;;4881522;29;20519;-94
2022/05/15 11:06:03;;;;;;;9.73;2.93;;;;;;;;;;4880280;29;20471;-92
2022/05/15 11:11:59;;;;;;;11.00;1.57;;;;;;;;;;4862979;29;20519;-92
2022/05/15 11:14:45;;;;;;;9.70;1.53;;;;;;;;;;4846440;29;20562;-94
2022/05/15 11:23:20;;;;;;;6.90;1.50;;;;;;;;;;4862962;29;20851;-92
2022/05/15 11:26:09;;;;;;;8.17;1.90;;;;;;;;;;4849473;29;20970;-94
2022/05/15 11:31:28;;;;;;;5.10;1.70;;;;;;;;;;4862307;29;20451;-95
2022/05/15 11:34:03;;;;;;;13.43;2.00;;;;;;;;;;4831677;29;20464;-94
2022/05/15 11:36:35;;;;;;;9.33;1.30;;;;;;;;;;4846136;29;20586;-94
2022/05/15 11:45:39;;;;;;;6.90;1.63;;;;;;;;;;4862691;29;20461;-94
2022/05/15 11:48:34;;;;;;;11.60;2.40;;;;;;;;;;4861262;29;20531;-94
2022/05/15 11:51:34;;;;;;;6.70;1.80;;;;;;;;;;4861453;29;20510;-92
2022/05/15 11:54:08;;;;;;;6.70;2.10;;;;;;;;;;4861494;29;20464;-92
2022/05/15 11:56:51;;;;;;;11.27;1.87;;;;;;;;;;4830655;29;20831;-92
2022/05/15 11:59:32;;;;;;;6.50;1.70;;;;;;;;;;4860809;29;20471;-94
2022/05/15 12:05:28;;;;;;;12.67;1.80;;;;;;;;;;4862221;29;20431;-94
2022/05/15 12:08:30;;;;;;;6.83;1.73;;;;;;;;;;4861188;29;20506;-92
2022/05/15 12:11:31;;;;;;;8.80;1.23;;;;;;;;;;4861407;29;20485;-94
2022/05/15 12:14:30;;;;;;;11.70;1.57;;;;;;;;;;4861384;29;20526;-93
2022/05/15 12:17:05;;;;;;;12.37;1.97;;;;;;;;;;4860613;29;20841;-94
2022/05/15 12:19:45;;;;;;;8.83;1.27;;;;;;;;;;4846098;29;20436;-92
2022/05/15 12:22:31;;;;;;;7.27;1.60;;;;;;;;;;4846363;29;20950;-95
2022/05/15 12:25:11;;;;;;;12.10;2.00;;;;;;;;;;4845857;29;20546;-94
2022/05/15 12:28:50;;;;;;;5.97;2.20;;;;;;;;;;4845673;29;20467;-94
2022/05/15 12:30:46;;;;;;;11.77;1.97;;;;;;;;;;4848334;29;20452;-94
2022/05/15 12:33:14;;;;;;;10.20;1.67;;;;;;;;;;4830469;29;20462;-94
2022/05/15 12:38:53;;;;;;;7.17;1.63;;;;;;;;;;4861898;29;20448;-94
2022/05/15 12:44:36;;;;;;;8.40;1.90;;;;;;;;;;4861698;29;20451;-95
2022/05/15 12:47:19;;;;;;;8.07;1.50;;;;;;;;;;4830865;29;20459;-92
2022/05/15 12:50:02;;;;;;;12.97;1.80;;;;;;;;;;4830039;29;20455;-94
2022/05/15 12:53:03;;;;;;;9.50;1.70;;;;;;;;;;4860532;29;20471;-94
2022/05/15 12:55:34;;;;;;;6.57;1.57;;;;;;;;;;4860494;29;20494;-94
2022/05/15 12:58:05;;;;;;;11.10;2.00;;;;;;;;;;4829517;29;20467;-93
2022/05/15 13:00:42;;;;;;;11.83;2.47;;;;;;;;;;4859818;29;20466;-94
2022/05/15 13:03:21;;;;;;;7.47;1.97;;;;;;;;;;4861645;29;20463;-92
2022/05/15 13:06:09;;;;;;;11.67;1.93;;;;;;;;;;4860363;29;20967;-94
2022/05/15 13:08:57;;;;;;;9.30;1.97;;;;;;;;;;4861149;29;20477;-94
2022/05/15 13:11:50;;;;;;;10.70;1.67;;;;;;;;;;4866934;29;20462;-92
2022/05/15 13:14:19;;;;;;;7.90;1.63;;;;;;;;;;4882629;29;20486;-94
2022/05/15 13:16:51;;;;;;;9.00;1.87;;;;;;;;;;4852159;29;20486;-91
2022/05/15 13:19:28;;;;;;;9.57;2.10;;;;;;;;;;4852149;29;20558;-94
2022/05/15 13:22:31;;;;;;;10.70;2.23;;;;;;;;;;4851805;29;20484;-94
2022/05/15 13:25:28;;;;;;;7.23;1.70;;;;;;;;;;4826207;29;20452;-92
2022/05/15 13:27:57;;;;;;;10.67;1.93;;;;;;;;;;4798274;29;20452;-94
2022/05/15 13:30:39;;;;;;;11.87;1.77;;;;;;;;;;4796616;29;20457;-94
2022/05/15 13:33:29;;;;;;;11.97;2.40;;;;;;;;;;4796594;29;20457;-95
2022/05/15 13:36:07;;;;;;;6.80;1.53;;;;;;;;;;4826132;29;20488;-92
2022/05/15 13:44:51;;;;;;;7.13;1.83;;;;;;;;;;4813401;29;20582;-95
2022/05/15 13:47:46;;;;;;;7.03;1.50;;;;;;;;;;4810988;29;20544;-94
2022/05/15 13:50:51;;;;;;;11.67;1.57;;;;;;;;;;4811041;29;20433;-94
2022/05/15 13:53:34;;;;;;;14.97;2.60;;;;;;;;;;4792715;29;20458;-94
2022/05/15 13:56:04;;;;;;;6.03;1.63;;;;;;;;;;4807544;29;20489;-94
2022/05/15 13:58:38;;;;;;;6.60;1.70;;;;;;;;;;4823346;29;20471;-91
2022/05/15 14:01:36;;;;;;;10.40;2.13;;;;;;;;;;4832253;29;20456;-94
2022/05/15 14:04:25;;;;;;;5.30;1.30;;;;;;;;;;4846998;29;20969;-93
2022/05/15 14:07:11;;;;;;;13.10;2.07;;;;;;;;;;4831822;29;20467;-92
2022/05/15 14:09:49;;;;;;;9.10;1.50;;;;;;;;;;4847508;29;20443;-94
2022/05/15 14:12:51;;;;;;;9.23;2.07;;;;;;;;;;4832166;29;20476;-94
2022/05/15 14:15:43;;;;;;;7.90;1.30;;;;;;;;;;4847131;29;20840;-92
2022/05/15 14:18:30;;;;;;;4.67;1.33;;;;;;;;;;4862073;29;20458;-94
2022/05/15 14:21:11;;;;;;;8.63;1.63;;;;;;;;;;4856681;29;20853;-95
2022/05/15 14:23:54;;;;;;;6.10;1.40;;;;;;;;;;4851177;29;20530;-94
2022/05/15 14:26:28;;;;;;;16.20;1.83;;;;;;;;;;4850653;29;20454;-92
2022/05/15 14:29:05;;;;;;;12.30;1.47;;;;;;;;;;4851357;29;20445;-94
2022/05/15 14:31:52;;;;;;;7.47;1.40;;;;;;;;;;4881830;29;20793;-94
2022/05/15 14:34:39;;;;;;;11.23;1.90;;;;;;;;;;4881476;29;20454;-94
2022/05/15 14:37:17;;;;;;;14.53;1.90;;;;;;;;;;4851012;29;20558;-94
2022/05/15 14:39:50;;;;;;;10.37;1.40;;;;;;;;;;4881361;29;20439;-94
2022/05/15 14:42:27;;;;;;;9.90;1.90;;;;;;;;;;4881246;29;20443;-94
2022/05/15 14:48:25;;;;;;;2.90;1.03;;;;;;;;;;4881992;29;20422;-94
2022/05/15 14:51:00;;;;;;;6.00;1.10;;;;;;;;;;4850845;29;20450;-94
2022/05/15 14:53:48;;;;;;;6.40;1.00;;;;;;;;;;4850782;29;20461;-94
2022/05/15 14:56:33;;;;;;;10.73;1.50;;;;;;;;;;4865049;29;20490;-94
2022/05/15 14:59:07;;;;;;;5.13;1.30;;;;;;;;;;4880307;29;20542;-94
2022/05/15 15:02:14;;;;;;;8.43;1.20;;;;;;;;;;4865438;29;20829;-94
2022/05/15 15:07:45;;;;;;;6.20;1.27;;;;;;;;;;4879880;29;20469;-92
2022/05/15 15:10:18;;;;;;;13.90;1.50;;;;;;;;;;4847022;29;20480;-92
2022/05/15 15:13:05;;;;;;;5.90;1.53;;;;;;;;;;4847006;29;20463;-92
2022/05/15 15:15:35;;;;;;;5.83;0.90;;;;;;;;;;4846666;29;20469;-91
2022/05/15 15:18:16;;;;;;;9.33;1.57;;;;;;;;;;4846875;29;20965;-94
2022/05/15 15:21:04;;;;;;;11.10;1.47;;;;;;;;;;4848406;29;20443;-92
2022/05/15 15:23:39;;;;;;;5.70;1.10;;;;;;;;;;4847023;29;20941;-94
2022/05/15 15:26:22;;;;;;;5.13;1.40;;;;;;;;;;4846821;29;20459;-94
2022/05/15 15:28:51;;;;;;;4.83;1.10;;;;;;;;;;4846691;29;20453;-93
2022/05/15 15:31:30;;;;;;;8.67;1.27;;;;;;;;;;4831275;29;20450;-93
2022/05/15 15:34:06;;;;;;;6.93;1.70;;;;;;;;;;4845582;29;20949;-94
2022/05/15 15:36:34;;;;;;;7.30;1.70;;;;;;;;;;4846190;29;20486;-94
2022/05/15 15:39:19;;;;;;;9.03;1.40;;;;;;;;;;4831410;29;20444;-94
2022/05/15 15:42:03;;;;;;;6.23;1.13;;;;;;;;;;4862268;29;20524;-92
2022/05/15 15:44:36;;;;;;;8.60;1.00;;;;;;;;;;4846291;29;20443;-92
2022/05/15 15:47:14;;;;;;;3.97;1.07;;;;;;;;;;4846286;29;20460;-94
2022/05/15 15:49:42;;;;;;;7.80;0.90;;;;;;;;;;4846354;29;20487;-95
2022/05/15 15:55:38;;;;;;;3.23;0.73;;;;;;;;;;4862238;29;20472;-94
2022/05/15 15:58:08;;;;;;;3.73;0.90;;;;;;;;;;4825158;29;20561;-94
2022/05/15 16:00:48;;;;;;;8.40;1.50;;;;;;;;;;4827931;29;20466;-94
2022/05/15 16:03:35;;;;;;;10.33;1.23;;;;;;;;;;4842494;29;20456;-94
2022/05/15 16:09:15;;;;;;;11.73;1.50;;;;;;;;;;4843796;29;20464;-94
2022/05/15 16:11:45;;;;;;;10.67;1.87;;;;;;;;;;4842781;29;20460;-94
2022/05/15 16:14:45;;;;;;;6.13;1.33;;;;;;;;;;4843174;29;20801;-92
2022/05/15 16:17:20;;;;;;;9.43;1.20;;;;;;;;;;4842149;29;20496;-94
2022/05/15 16:20:00;;;;;;;8.03;1.23;;;;;;;;;;4842425;29;20505;-94
2022/05/15 16:22:37;;;;;;;6.23;1.60;;;;;;;;;;4842747;29;20857;-94
2022/05/15 16:25:05;;;;;;;6.27;1.33;;;;;;;;;;4842314;29;20460;-95
2022/05/15 16:27:38;;;;;;;6.43;1.30;;;;;;;;;;4842635;29;20454;-94
2022/05/15 16:30:37;;;;;;;5.43;1.27;;;;;;;;;;4842910;29;21194;-94
2022/05/15 16:33:21;;;;;;;5.03;1.00;;;;;;;;;;4842530;29;20468;-94
2022/05/15 16:35:51;;;;;;;7.27;1.70;;;;;;;;;;4842564;29;20823;-95
2022/05/15 16:41:47;;;;;;;7.57;1.50;;;;;;;;;;4844664;29;20519;-93
2022/05/15 16:44:15;;;;;;;5.90;1.30;;;;;;;;;;4848679;29;20452;-93
2022/05/15 16:46:45;;;;;;;11.00;1.63;;;;;;;;;;4835487;29;20432;-93
2022/05/15 16:49:12;;;;;;;5.80;1.40;;;;;;;;;;4851668;29;20451;-92
2022/05/15 16:51:54;;;;;;;7.40;1.60;;;;;;;;;;4847349;29;20456;-93
2022/05/15 16:54:24;;;;;;;12.20;1.77;;;;;;;;;;4849338;29;20546;-92
2022/05/15 16:56:56;;;;;;;2.90;1.23;;;;;;;;;;4848465;29;20541;-94
2022/05/15 17:06:15;;;;;;;4.43;1.10;;;;;;;;;;4866412;29;20418;-91
2022/05/15 17:08:46;;;;;;;10.67;1.47;;;;;;;;;;4854933;29;20454;-92
2022/05/15 17:11:21;;;;;;;7.20;1.27;;;;;;;;;;4867314;29;20960;-95
2022/05/15 17:13:57;;;;;;;5.13;1.00;;;;;;;;;;4867557;29;21015;-95
2022/05/15 17:16:34;;;;;;;11.73;1.40;;;;;;;;;;4867384;29;20509;-92
2022/05/15 17:19:03;;;;;;;5.90;1.30;;;;;;;;;;4867111;29;20838;-92
2022/05/15 17:28:09;;;;;;;6.00;1.30;;;;;;;;;;4887704;29;20849;-93
2022/05/15 17:35:54;;;;;;;7.13;1.40;;;;;;;;;;4884402;29;20489;-93
2022/05/15 17:38:24;;;;;;;9.03;1.17;;;;;;;;;;4883949;29;20581;-93
2022/05/15 17:40:53;;;;;;;5.70;1.40;;;;;;;;;;4884885;29;20510;-93
2022/05/15 17:43:22;;;;;;;16.70;1.60;;;;;;;;;;4868717;29;20446;-95
2022/05/15 17:45:51;;;;;;;9.23;1.40;;;;;;;;;;4868258;29;20510;-94
2022/05/15 17:48:23;;;;;;;6.90;1.30;;;;;;;;;;4868418;29;20451;-94
2022/05/15 17:53:43;;;;;;;3.97;1.10;;;;;;;;;;4882762;29;20431;-90
2022/05/15 17:56:11;;;;;;;7.33;1.20;;;;;;;;;;4867715;29;20486;-94
2022/05/15 17:58:42;;;;;;;12.93;1.30;;;;;;;;;;4868694;29;20543;-94
2022/05/15 18:01:12;;;;;;;8.90;1.57;;;;;;;;;;4853468;29;20463;-92
2022/05/15 18:03:43;;;;;;;8.50;1.40;;;;;;;;;;4852573;29;20565;-90
2022/05/15 18:06:14;;;;;;;8.83;1.47;;;;;;;;;;4868024;29;20439;-94
2022/05/15 18:08:41;;;;;;;7.37;1.40;;;;;;;;;;4867589;29;20873;-92
2022/05/15 18:11:16;;;;;;;8.63;1.00;;;;;;;;;;4850784;29;20442;-91
2022/05/15 18:13:44;;;;;;;7.20;1.30;;;;;;;;;;4854855;29;20450;-93
2022/05/15 18:16:13;;;;;;;5.83;1.30;;;;;;;;;;4866213;29;20454;-93
2022/05/15 18:18:41;;;;;;;8.07;1.40;;;;;;;;;;4882633;29;20499;-93
2022/05/15 18:24:13;;;;;;;7.10;1.57;;;;;;;;;;4882387;29;20507;-93
2022/05/15 18:33:34;;;;;;;16.93;1.93;;;;;;;;;;4883041;29;20442;-94
2022/05/15 18:36:27;;;;;;;4.53;1.20;;;;;;;;;;4866162;29;20462;-93
2022/05/15 18:42:24;;;;;;;9.57;1.90;;;;;;;;;;4882621;29;20470;-94
2022/05/15 18:44:59;;;;;;;9.47;1.60;;;;;;;;;;4850905;29;20533;-95
2022/05/15 18:47:36;;;;;;;9.03;1.43;;;;;;;;;;4855462;29;20883;-92
2022/05/15 18:55:52;;;;;;;9.93;1.47;;;;;;;;;;4855905;29;20448;-92
2022/05/15 18:58:28;;;;;;;13.43;2.00;;;;;;;;;;4872427;29;20552;-91
2022/05/15 19:01:11;;;;;;;11.03;2.30;;;;;;;;;;4822860;29;20813;-93
2022/05/15 19:03:55;;;;;;;7.57;1.47;;;;;;;;;;4860211;29;20444;-93
2022/05/15 19:06:31;;;;;;;6.00;1.60;;;;;;;;;;4816192;29;20452;-93
2022/05/15 19:08:59;;;;;;;13.07;1.97;;;;;;;;;;4852632;29;20512;-93
2022/05/15 19:11:33;;;;;;;8.20;1.47;;;;;;;;;;4825854;29;20465;-92
2022/05/15 19:14:03;;;;;;;10.00;1.83;;;;;;;;;;4843058;29;20451;-89
2022/05/15 19:16:32;;;;;;;13.90;2.43;;;;;;;;;;4820161;29;20875;-91
2022/05/15 19:19:00;;;;;;;7.27;1.93;;;;;;;;;;4831416;29;20451;-89
2022/05/15 19:21:30;;;;;;;12.13;2.13;;;;;;;;;;4829503;29;20531;-90
2022/05/15 19:23:58;;;;;;;11.57;2.50;;;;;;;;;;4844618;29;20454;-91
2022/05/15 19:26:27;;;;;;;8.20;1.77;;;;;;;;;;4812505;29;20464;-90
2022/05/15 19:28:56;;;;;;;9.73;1.43;;;;;;;;;;4812711;29;20532;-91
2022/05/15 19:31:23;;;;;;;15.53;2.20;;;;;;;;;;4827017;29;20521;-91
2022/05/15 19:33:52;;;;;;;11.23;2.70;;;;;;;;;;4812951;29;20453;-90
2022/05/15 19:36:21;;;;;;;7.03;1.60;;;;;;;;;;4811994;29;20457;-90
2022/05/15 19:38:49;;;;;;;6.97;1.50;;;;;;;;;;4827474;29;20575;-93
2022/05/15 19:41:17;;;;;;;12.60;3.00;;;;;;;;;;4812463;29;20451;-90
2022/05/15 19:43:47;;;;;;;10.53;2.13;;;;;;;;;;4816242;29;20457;-90
2022/05/15 19:46:14;;;;;;;8.17;1.80;;;;;;;;;;4831057;29;20452;-89
2022/05/15 19:48:42;;;;;;;11.30;1.97;;;;;;;;;;4813415;29;20548;-91
2022/05/15 19:51:10;;;;;;;11.50;3.10;;;;;;;;;;4829127;29;20861;-90
2022/05/15 19:53:42;;;;;;;16.33;2.13;;;;;;;;;;4828949;29;20974;-93
2022/05/15 19:56:23;;;;;;;8.73;2.43;;;;;;;;;;4844698;29;20966;-90
2022/05/15 19:58:51;;;;;;;5.23;1.70;;;;;;;;;;4843963;29;20487;-90
2022/05/15 20:01:20;;;;;;;12.93;2.50;;;;;;;;;;4844392;29;20439;-89
2022/05/15 20:03:48;;;;;;;8.20;1.40;;;;;;;;;;4843450;29;20456;-91
2022/05/15 20:11:51;;;;;;;11.27;1.80;;;;;;;;;;4845958;29;20547;-90
2022/05/15 20:14:18;;;;;;;8.97;2.07;;;;;;;;;;4837819;29;20846;-90
2022/05/15 20:16:48;;;;;;;8.77;2.23;;;;;;;;;;4819339;29;20480;-89
2022/05/15 20:19:16;;;;;;;14.47;2.73;;;;;;;;;;4826191;29;20448;-90
2022/05/15 20:21:44;;;;;;;15.30;3.67;;;;;;;;;;4811653;29;20449;-90
2022/05/15 20:24:13;;;;;;;13.50;2.90;;;;;;;;;;4828508;29;20455;-90
2022/05/15 20:26:40;;;;;;;11.97;2.20;;;;;;;;;;4844067;29;20942;-89
2022/05/15 20:29:09;;;;;;;8.07;2.53;;;;;;;;;;4828924;29;20459;-92
2022/05/15 20:31:38;;;;;;;10.77;2.03;;;;;;;;;;4844740;29;20444;-91
2022/05/15 20:34:08;;;;;;;19.57;2.47;;;;;;;;;;4842592;29;20471;-91
2022/05/15 20:36:40;;;;;;;10.40;2.27;;;;;;;;;;4859442;29;20452;-95
2022/05/15 20:39:33;;;;;;;11.20;2.80;;;;;;;;;;4872510;29;20491;-94
2022/05/15 20:42:16;;;;;;;12.20;3.30;;;;;;;;;;4853616;29;20467;-96
2022/05/15 20:47:13;;;;;;;8.83;2.40;;;;;;;;;;4873335;29;20499;-95
2022/05/15 20:53:09;;;;;;;12.20;1.83;;;;;;;;;;4854510;29;20442;-91
2022/05/15 21:02:34;;;;;;;8.63;2.00;;;;;;;;;;4857284;29;20937;-94
2022/05/15 21:05:19;;;;;;;12.30;3.20;;;;;;;;;;4844897;29;20471;-94
2022/05/15 21:08:18;;;;;;;11.60;1.50;;;;;;;;;;4860304;29;20459;-94
2022/05/15 21:10:45;;;;;;;18.60;3.23;;;;;;;;;;4840094;29;20464;-94
2022/05/15 21:16:42;;;;;;;11.30;2.20;;;;;;;;;;4861062;29;20418;-95
2022/05/15 21:19:12;;;;;;;12.17;2.17;;;;;;;;;;4830241;29;20487;-94
2022/05/15 21:22:05;;;;;;;11.00;1.90;;;;;;;;;;4830491;29;21015;-94
2022/05/15 21:24:32;;;;;;;12.60;1.93;;;;;;;;;;4839998;29;20508;-94
2022/05/15 21:27:00;;;;;;;14.67;2.40;;;;;;;;;;4829936;29;20512;-94
2022/05/15 21:29:46;;;;;;;7.47;1.90;;;;;;;;;;4844762;29;20459;-94
2022/05/15 21:35:37;;;;;;;12.70;1.87;;;;;;;;;;4864355;29;20435;-94
2022/05/15 21:44:33;;;;;;;14.57;1.60;;;;;;;;;;4850061;29;21013;-94
2022/05/15 21:47:22;;;;;;;11.80;2.13;;;;;;;;;;4847656;29;20471;-94
2022/05/15 21:50:08;;;;;;;13.60;1.97;;;;;;;;;;4864692;29;20799;-94
2022/05/15 21:52:38;;;;;;;12.10;2.60;;;;;;;;;;4847613;29;20477;-93
2022/05/15 22:02:05;;;;;;;7.67;1.87;;;;;;;;;;4860368;29;20410;-94
2022/05/15 22:18:27;;;;;;;12.30;1.90;;;;;;;;;;4845915;29;20525;-92
2022/05/15 22:20:56;;;;;;;13.93;2.00;;;;;;;;;;4863383;29;20533;-92
2022/05/15 22:26:55;;;;;;;7.07;1.63;;;;;;;;;;4882394;29;20399;-92
2022/05/15 22:35:58;;;;;;;11.87;1.60;;;;;;;;;;4882334;29;20414;-94
2022/05/15 22:41:47;;;;;;;13.27;2.27;;;;;;;;;;4866507;29;20459;-92
2022/05/15 22:44:45;;;;;;;12.80;1.60;;;;;;;;;;4825139;29;20436;-95
2022/05/15 22:47:54;;;;;;;11.93;2.40;;;;;;;;;;4865355;29;20490;-94
2022/05/15 22:50:47;;;;;;;7.60;1.63;;;;;;;;;;4859250;29;20517;-95
2022/05/15 22:57:20;;;;;;;8.13;2.40;;;;;;;;;;4844842;29;20518;-94
2022/05/15 23:10:26;;;;;;;9.33;2.40;;;;;;;;;;4863691;29;20515;-96
2022/05/15 23:16:25;;;;;;;13.40;2.60;;;;;;;;;;4844511;29;20846;-95
2022/05/15 23:33:04;;;;;;;11.53;2.10;;;;;;;;;;4861224;29;20527;-96
2022/05/15 23:35:37;;;;;;;7.43;2.30;;;;;;;;;;4861680;29;20509;-92
2022/05/15 23:41:55;;;;;;;18.13;2.00;;;;;;;;;;4862284;29;20531;-95
2022/05/15 23:44:51;;;;;;;13.97;1.97;;;;;;;;;;4861217;29;20463;-95
2022/05/15 23:51:12;;;;;;;7.43;1.67;;;;;;;;;;4861930;29;20518;-92
